Time;durP1;ratioP1;P1;durP2;ratioP2;P2;SDS_P1;SDS_P2;PMS_P1;PMS_P2;Temp;Humidity;BMP_temperature;BMP_pressure;BME280_temperature;BME280_humidity;BME280_pressure;Samples;Min_cycle;Max_cycle;Signal;HPM_P1;HPM_P2
2022/11/11 00:02:36;;;;;;;9.00;2.53;;;;;;;9.58;79.28;101931.56;1666169;85;21619;-77
2022/11/11 00:05:21;;;;;;;7.13;2.50;;;;;;;9.57;79.30;101925.47;1666385;85;21054;-77
2022/11/11 00:08:07;;;;;;;7.50;2.63;;;;;;;9.56;79.36;101925.05;1666238;85;22214;-77
2022/11/11 00:10:53;;;;;;;7.57;2.50;;;;;;;9.54;79.40;101919.41;1666204;85;21050;-77
2022/11/11 00:13:39;;;;;;;6.83;2.80;;;;;;;9.54;79.50;101920.71;1666290;85;21019;-77
2022/11/11 00:25:04;;;;;;;10.17;2.60;;;;;;;9.55;79.48;101925.05;1666078;85;21054;-77
2022/11/11 00:25:26;;;;;;;10.63;2.50;;;;;;;9.55;79.52;101925.05;1666123;85;21054;-77
2022/11/11 00:28:11;;;;;;;7.07;2.37;;;;;;;9.52;79.56;101925.08;1666178;85;21031;-77
2022/11/11 00:31:06;;;;;;;8.30;2.50;;;;;;;9.51;79.56;101934.69;1666162;85;21075;-77
2022/11/11 00:33:53;;;;;;;9.13;2.80;;;;;;;9.49;79.58;101928.59;1666301;85;21047;-77
2022/11/11 00:36:38;;;;;;;9.83;3.23;;;;;;;9.47;79.57;101935.58;1654628;85;21143;-77
2022/11/11 00:39:24;;;;;;;7.23;2.50;;;;;;;9.46;79.61;101939.09;1664552;85;21050;-77
2022/11/11 00:42:09;;;;;;;8.27;2.40;;;;;;;9.46;79.74;101943.45;1666269;85;21055;-77
2022/11/11 00:44:55;;;;;;;7.90;2.07;;;;;;;9.47;79.80;101943.88;1666309;85;20999;-78
2022/11/11 00:50:59;;;;;;;9.47;2.33;;;;;;;9.47;79.75;101947.35;1666382;85;21148;-77
2022/11/11 00:53:44;;;;;;;;;;;;;;;9.48;79.83;101937.78;1668671;85;21034;-77
2022/11/11 00:56:30;;;;;;;8.03;2.53;;;;;;;9.48;79.84;101936.47;1666154;85;20218;-77
2022/11/11 00:59:15;;;;;;;6.90;2.30;;;;;;;9.46;79.82;101943.02;1666244;85;21487;-77
2022/11/11 01:02:01;;;;;;;10.63;2.13;;;;;;;9.48;79.94;101929.93;1666277;85;21607;-77
2022/11/11 01:04:46;;;;;;;6.10;2.07;;;;;;;9.50;79.93;101932.94;1666230;85;21947;-77
2022/11/11 01:07:32;;;;;;;6.77;2.23;;;;;;;9.52;79.92;101923.33;1666128;85;21615;-78
2022/11/11 01:10:37;;;;;;;7.60;2.13;;;;;;;9.54;79.97;101920.27;1666253;85;21034;-78
2022/11/11 01:13:29;;;;;;;5.90;1.60;;;;;;;9.56;79.96;101911.97;1666162;85;21054;-77
2022/11/11 01:16:23;;;;;;;8.17;2.30;;;;;;;9.58;79.95;101906.70;1666188;85;21027;-77
2022/11/11 01:19:08;;;;;;;6.97;2.00;;;;;;;9.59;79.87;101909.31;1666243;85;21210;-77
2022/11/11 01:21:53;;;;;;;7.17;2.20;;;;;;;9.59;79.80;101896.67;1666155;85;21586;-78
2022/11/11 01:24:39;;;;;;;6.37;2.23;;;;;;;9.59;79.81;101909.31;1666226;85;21532;-78
2022/11/11 01:27:25;;;;;;;8.20;2.40;;;;;;;9.59;79.77;101908.02;1666084;85;21069;-78
2022/11/11 01:30:12;;;;;;;6.27;2.03;;;;;;;9.60;79.79;101908.88;1666177;85;21035;-77
2022/11/11 01:32:58;;;;;;;7.23;2.33;;;;;;;9.59;79.70;101901.91;1666128;85;21165;-77
2022/11/11 01:35:43;;;;;;;6.20;2.60;;;;;;;9.57;79.66;101904.97;1663623;85;21034;-78
2022/11/11 01:38:28;;;;;;;6.67;1.80;;;;;;;9.58;79.71;101905.39;1655579;85;21011;-78
2022/11/11 01:41:33;;;;;;;8.63;2.27;;;;;;;9.57;79.72;101912.38;1666721;85;21007;-78
2022/11/11 01:44:40;;;;;;;6.90;2.20;;;;;;;9.58;79.68;101907.56;1671955;84;21035;-77
2022/11/11 01:49:17;;;;;;;11.70;2.93;;;;;;;9.56;79.59;101911.07;1674923;84;21961;-78
2022/11/11 01:50:13;;;;;;;6.10;2.33;;;;;;;9.53;79.59;101900.63;1666110;85;21302;-77
2022/11/11 01:52:58;;;;;;;9.17;2.17;;;;;;;9.49;79.64;101906.34;1666213;85;21074;-78
2022/11/11 01:55:43;;;;;;;7.63;2.93;;;;;;;9.50;79.80;101909.38;1666087;85;21094;-78
2022/11/11 01:58:29;;;;;;;6.70;2.13;;;;;;;9.54;79.92;101920.71;1666210;85;21117;-77
2022/11/11 02:01:16;;;;;;;7.17;2.40;;;;;;;9.62;79.99;101918.89;1666197;85;21142;-77
2022/11/11 02:07:09;;;;;;;5.93;2.20;;;;;;;9.71;79.82;101928.41;1666227;85;21007;-78
2022/11/11 02:09:56;;;;;;;9.17;2.27;;;;;;;9.73;79.83;101937.13;1666380;85;21530;-77
2022/11/11 02:15:48;;;;;;;6.70;2.13;;;;;;;9.88;79.85;101942.66;1666136;85;21573;-78
2022/11/11 02:18:34;;;;;;;8.30;2.30;;;;;;;9.95;79.82;101939.97;1666065;85;21054;-77
2022/11/11 02:21:43;;;;;;;6.97;2.37;;;;;;;10.01;79.69;101942.97;1666205;85;21523;-77
2022/11/11 02:24:31;;;;;;;7.07;2.00;;;;;;;10.06;79.62;101928.08;1666454;85;21095;-77
2022/11/11 02:27:18;;;;;;;8.13;2.30;;;;;;;10.09;79.47;101931.08;1666207;85;21489;-77
2022/11/11 02:30:14;;;;;;;8.33;2.10;;;;;;;10.12;79.40;101927.15;1663663;85;21201;-77
2022/11/11 02:32:55;;;;;;;6.60;2.20;;;;;;;10.15;79.32;101914.87;1649124;86;21464;-77
2022/11/11 02:35:47;;;;;;;6.20;1.93;;;;;;;10.17;79.15;101918.77;1647860;86;21529;-77
2022/11/11 02:38:33;;;;;;;5.73;2.20;;;;;;;10.17;79.07;101913.11;1656266;85;21042;-78
2022/11/11 02:44:24;;;;;;;8.83;2.40;;;;;;;10.14;78.73;101906.59;1649229;86;21323;-77
2022/11/11 02:47:09;;;;;;;7.47;2.10;;;;;;;10.08;78.63;101896.16;1649283;86;21043;-77
2022/11/11 02:49:55;;;;;;;7.50;2.37;;;;;;;10.01;78.48;101906.30;1649355;86;21091;-77
2022/11/11 02:52:40;;;;;;;9.83;3.13;;;;;;;9.93;78.50;101897.20;1649108;86;21102;-78
2022/11/11 02:55:25;;;;;;;6.10;2.30;;;;;;;9.86;78.55;101892.04;1649237;86;21042;-78
2022/11/11 02:58:12;;;;;;;6.30;2.40;;;;;;;9.81;78.60;101891.66;1649326;86;21209;-77
2022/11/11 03:00:58;;;;;;;6.47;2.70;;;;;;;9.75;78.58;101894.31;1649189;86;21028;-77
2022/11/11 03:03:44;;;;;;;6.13;2.20;;;;;;;9.69;78.59;101896.13;1649317;86;21019;-77
2022/11/11 03:06:29;;;;;;;8.23;2.40;;;;;;;9.61;78.60;101901.43;1649374;86;21066;-77
2022/11/11 03:09:14;;;;;;;6.13;2.20;;;;;;;9.53;78.69;101898.91;1649447;86;21019;-78
2022/11/11 03:12:00;;;;;;;7.57;2.40;;;;;;;9.47;78.75;101896.32;1649350;86;21968;-77
2022/11/11 03:14:45;;;;;;;8.83;2.43;;;;;;;9.40;78.81;101909.49;1649233;86;21028;-77
2022/11/11 03:17:39;;;;;;;8.23;2.70;;;;;;;9.32;78.90;101908.23;1649494;86;21031;-77
2022/11/11 03:23:30;;;;;;;7.67;2.73;;;;;;;9.15;78.90;101925.37;1649290;86;21046;-77
2022/11/11 03:26:16;;;;;;;7.80;2.30;;;;;;;9.04;79.06;101932.42;1649354;86;21153;-77
2022/11/11 03:29:01;;;;;;;8.50;3.00;;;;;;;8.97;79.23;101943.33;1650157;86;21031;-77
2022/11/11 03:31:46;;;;;;;10.50;2.93;;;;;;;8.92;79.33;101951.64;1670048;84;21008;-77
2022/11/11 03:34:32;;;;;;;7.83;2.67;;;;;;;8.86;79.57;101951.23;1671391;85;21570;-77
2022/11/11 03:40:22;;;;;;;7.93;2.23;;;;;;;8.83;79.83;101953.00;1671349;85;21118;-78
2022/11/11 03:43:07;;;;;;;8.63;2.23;;;;;;;8.82;79.93;101945.61;1671357;85;21027;-78
2022/11/11 03:45:56;;;;;;;8.17;2.17;;;;;;;8.86;80.13;101949.06;1671447;85;21046;-77
2022/11/11 03:48:41;;;;;;;6.90;2.20;;;;;;;8.85;80.11;101947.34;1671380;85;21042;-77
2022/11/11 03:51:27;;;;;;;7.57;2.37;;;;;;;8.89;80.35;101946.42;1671407;85;20999;-77
2022/11/11 03:54:12;;;;;;;6.60;2.37;;;;;;;8.96;80.32;101953.82;1671367;85;21340;-77
2022/11/11 04:00:03;;;;;;;4.77;2.27;;;;;;;8.99;80.30;101959.03;1671383;85;20986;-77
2022/11/11 04:12:00;;;;;;;7.67;2.23;;;;;;;9.08;80.21;101961.14;1671308;85;21062;-76
2022/11/11 04:17:50;;;;;;;6.47;2.20;;;;;;;9.10;80.17;101980.31;1671347;85;21496;-77
2022/11/11 04:23:40;;;;;;;3.87;1.60;;;;;;;9.10;80.17;101984.24;1671327;85;21027;-77
2022/11/11 04:26:25;;;;;;;12.40;2.70;;;;;;;9.11;80.20;101982.48;1671181;85;21050;-77
2022/11/11 04:29:29;;;;;;;4.20;1.90;;;;;;;9.11;80.15;101984.66;1671365;85;21019;-77
2022/11/11 04:35:22;;;;;;;8.83;2.30;;;;;;;9.10;80.12;101975.53;1705141;83;21093;-77
2022/11/11 04:41:12;;;;;;;7.13;2.20;;;;;;;8.99;79.88;101971.66;1704977;83;21003;-78
2022/11/11 04:47:01;;;;;;;5.43;2.23;;;;;;;8.86;79.84;101964.30;1705116;83;21042;-77
2022/11/11 04:49:47;;;;;;;6.83;2.40;;;;;;;8.82;80.28;101959.13;1705052;84;21505;-77
2022/11/11 04:52:33;;;;;;;8.70;2.77;;;;;;;8.76;80.00;101962.63;1705323;83;21167;-77
2022/11/11 04:58:27;;;;;;;6.63;1.90;;;;;;;8.56;79.97;101952.23;1705312;83;21022;-77
2022/11/11 05:03:14;;;;;;;7.53;2.65;;;;;;;8.50;80.21;101944.42;1705202;83;21281;-76
2022/11/11 05:04:03;;;;;;;7.10;2.37;;;;;;;8.45;80.36;101944.46;1705469;83;21072;-77
2022/11/11 05:09:53;;;;;;;6.63;2.67;;;;;;;8.42;80.90;101931.83;1704952;84;21078;-77
2022/11/11 05:12:38;;;;;;;8.30;2.97;;;;;;;8.34;80.46;101921.39;1705094;83;21022;-77
2022/11/11 05:21:33;;;;;;;8.80;2.77;;;;;;;7.93;80.50;101924.97;1705057;83;21568;-77
2022/11/11 05:27:22;;;;;;;6.30;2.83;;;;;;;7.75;80.90;101935.42;1704993;83;21046;-77
2022/11/11 05:30:11;;;;;;;9.20;2.87;;;;;;;7.71;81.42;101934.56;1705061;83;21049;-77
2022/11/11 05:32:56;;;;;;;5.33;2.77;;;;;;;7.71;81.64;101937.62;1696706;83;21010;-77
2022/11/11 05:35:42;;;;;;;11.57;3.10;;;;;;;7.72;81.94;101944.56;1676578;84;21144;-77
2022/11/11 05:38:29;;;;;;;9.03;3.37;;;;;;;7.74;81.96;101954.58;1676524;84;20977;-77
2022/11/11 05:41:14;;;;;;;7.27;2.77;;;;;;;7.72;82.28;101957.17;1676579;84;21459;-77
2022/11/11 05:43:59;;;;;;;5.00;2.70;;;;;;;7.77;82.49;101958.48;1676652;84;21041;-77
2022/11/11 05:46:45;;;;;;;6.30;2.73;;;;;;;7.79;82.63;101965.89;1676653;84;21066;-77
2022/11/11 05:49:30;;;;;;;6.20;3.40;;;;;;;7.81;82.61;101965.02;1676613;84;21104;-77
2022/11/11 05:52:17;;;;;;;6.77;3.23;;;;;;;7.80;82.54;101965.87;1676593;84;21006;-77
2022/11/11 05:55:03;;;;;;;8.27;2.90;;;;;;;7.81;82.80;101968.04;1676502;84;21045;-77
2022/11/11 05:57:48;;;;;;;8.37;2.77;;;;;;;7.85;82.87;101959.80;1676614;84;21089;-77
2022/11/11 06:00:33;;;;;;;6.50;3.10;;;;;;;7.88;83.15;101950.66;1676665;84;21521;-77
2022/11/11 06:03:18;;;;;;;9.23;2.50;;;;;;;7.89;83.02;101950.63;1676642;84;21152;-77
2022/11/11 06:06:04;;;;;;;5.23;2.50;;;;;;;7.90;83.10;101948.89;1676477;84;21105;-77
2022/11/11 06:08:50;;;;;;;6.77;3.00;;;;;;;7.93;83.23;101963.27;1676795;84;21065;-77
2022/11/11 06:11:35;;;;;;;8.53;3.00;;;;;;;7.95;83.07;101976.76;1676625;84;21021;-77
2022/11/11 06:14:21;;;;;;;7.73;3.30;;;;;;;7.88;82.75;101980.23;1680472;84;21049;-77
2022/11/11 06:17:07;;;;;;;7.90;3.37;;;;;;;7.83;82.85;101973.70;1676561;84;21368;-79
2022/11/11 06:19:52;;;;;;;10.37;4.73;;;;;;;7.77;82.55;101973.70;1676639;84;21042;-77
2022/11/11 06:22:56;;;;;;;10.37;5.27;;;;;;;7.70;82.65;101977.61;1674922;84;21069;-76
2022/11/11 06:28:52;;;;;;;10.63;4.47;;;;;;;7.64;83.25;101982.40;1676452;84;21049;-77
2022/11/11 06:31:37;;;;;;;9.57;3.60;;;;;;;7.62;83.11;101987.18;1684537;83;21174;-77
2022/11/11 06:34:23;;;;;;;11.07;4.00;;;;;;;7.54;83.23;101999.81;1670776;85;21524;-77
2022/11/11 06:37:08;;;;;;;9.97;4.20;;;;;;;7.52;83.29;101998.92;1670668;84;21067;-77
2022/11/11 06:39:54;;;;;;;15.53;6.17;;;;;;;7.44;83.18;102004.56;1671231;85;21066;-77
2022/11/11 06:42:39;;;;;;;11.93;5.70;;;;;;;7.40;83.52;102010.66;1671287;85;21043;-77
2022/11/11 06:45:28;;;;;;;14.47;5.00;;;;;;;7.38;83.67;102007.17;1671128;85;22040;-78
2022/11/11 06:48:14;;;;;;;9.40;3.83;;;;;;;7.36;83.81;102012.37;1671004;85;21109;-78
2022/11/11 06:51:05;;;;;;;9.87;3.67;;;;;;;7.40;84.06;102011.06;1676005;85;21078;-78
2022/11/11 06:53:51;;;;;;;10.03;3.67;;;;;;;7.44;84.30;102008.92;1664947;86;21095;-76
2022/11/11 06:56:36;;;;;;;8.27;3.80;;;;;;;7.47;84.16;102004.56;1664722;84;21089;-76
2022/11/11 06:59:22;;;;;;;9.07;3.03;;;;;;;7.47;84.25;102009.78;1679840;85;21153;-76
2022/11/11 07:02:13;;;;;;;5.80;3.30;;;;;;;7.49;84.06;102007.19;1664037;84;21082;-76
2022/11/11 07:04:59;;;;;;;8.77;3.37;;;;;;;7.48;84.34;102006.33;1664158;84;21102;-76
2022/11/11 07:07:44;;;;;;;6.97;3.30;;;;;;;7.55;84.75;102013.28;1663914;84;21486;-76
2022/11/11 07:10:32;;;;;;;9.60;3.27;;;;;;;7.60;84.51;102011.55;1678269;85;21038;-76
2022/11/11 07:13:17;;;;;;;7.10;2.97;;;;;;;7.64;84.83;101998.06;1682369;85;21101;-76
2022/11/11 07:16:02;;;;;;;9.73;3.30;;;;;;;7.69;84.68;102005.46;1664355;84;21046;-77
2022/11/11 07:18:47;;;;;;;7.70;3.20;;;;;;;7.73;84.84;102005.02;1664756;84;21512;-77
2022/11/11 07:21:33;;;;;;;7.10;2.90;;;;;;;7.77;84.82;102009.39;1665313;84;21078;-77
2022/11/11 07:24:18;;;;;;;7.00;3.20;;;;;;;7.81;84.76;102016.33;1664194;84;21936;-76
2022/11/11 07:27:03;;;;;;;7.30;3.47;;;;;;;7.86;85.00;102018.95;1663884;84;21170;-77
2022/11/11 07:29:49;;;;;;;7.83;3.30;;;;;;;7.89;84.79;102008.52;1664248;84;21038;-77
2022/11/11 07:32:35;;;;;;;6.87;2.83;;;;;;;7.92;84.85;102005.89;1673973;84;21062;-77
2022/11/11 07:35:21;;;;;;;6.97;2.77;;;;;;;7.98;84.73;102003.27;1706495;82;21041;-77
2022/11/11 07:38:07;;;;;;;9.50;3.00;;;;;;;8.04;84.82;102000.24;1718921;82;21529;-77
2022/11/11 07:40:52;;;;;;;6.17;3.13;;;;;;;8.12;84.83;102008.48;1682825;84;21233;-77
2022/11/11 07:43:37;;;;;;;8.23;2.70;;;;;;;8.18;84.86;102009.37;1721781;82;20966;-77
2022/11/11 07:46:23;;;;;;;7.93;2.87;;;;;;;8.23;84.60;102010.23;1686772;84;21021;-77
2022/11/11 07:49:08;;;;;;;7.63;2.60;;;;;;;8.29;84.74;102015.88;1721968;82;21050;-76
2022/11/11 07:51:53;;;;;;;5.13;2.40;;;;;;;8.35;84.56;102021.09;1687848;84;21609;-77
2022/11/11 07:54:39;;;;;;;7.33;2.73;;;;;;;8.40;84.52;102031.14;1721282;82;21155;-78
2022/11/11 07:57:25;;;;;;;13.37;4.27;;;;;;;8.48;84.67;102033.73;1689401;84;21398;-76
2022/11/11 08:00:11;;;;;;;13.10;6.47;;;;;;;8.55;84.68;102031.53;1719110;82;21004;-77
2022/11/11 08:02:57;;;;;;;8.17;2.70;;;;;;;8.63;84.62;102031.07;1686104;84;21024;-76
2022/11/11 08:05:42;;;;;;;7.57;2.80;;;;;;;8.69;84.55;102026.26;1717424;82;21113;-76
2022/11/11 08:08:27;;;;;;;7.47;2.47;;;;;;;8.73;84.12;102029.72;1688847;84;21153;-75
2022/11/11 08:11:14;;;;;;;6.90;2.87;;;;;;;8.73;84.04;102023.19;1714758;82;21006;-77
2022/11/11 08:13:59;;;;;;;7.73;2.67;;;;;;;8.77;84.03;102024.49;1707183;82;21029;-76
2022/11/11 08:16:45;;;;;;;8.67;2.70;;;;;;;8.80;83.98;102025.78;1712630;83;21409;-80
2022/11/11 08:19:31;;;;;;;7.97;2.90;;;;;;;8.84;84.00;102030.55;1677729;84;21057;-77
2022/11/11 08:22:16;;;;;;;7.07;3.33;;;;;;;8.83;83.87;102024.91;1719676;82;21124;-77
2022/11/11 08:25:02;;;;;;;7.47;2.90;;;;;;;8.85;83.94;102029.70;1702330;83;21037;-73
2022/11/11 08:27:47;;;;;;;6.80;3.10;;;;;;;8.88;84.05;102028.38;1702733;83;21050;-76
2022/11/11 08:30:33;;;;;;;6.73;2.73;;;;;;;8.92;84.02;102032.30;1705466;83;21008;-79
2022/11/11 08:33:19;;;;;;;10.50;3.20;;;;;;;8.96;83.96;102033.58;1704426;82;21038;-77
2022/11/11 08:36:06;;;;;;;6.20;2.60;;;;;;;8.99;83.90;102030.51;1713178;82;21123;-76
2022/11/11 08:38:52;;;;;;;6.50;2.70;;;;;;;9.04;83.89;102043.58;1697088;83;21431;-76
2022/11/11 08:41:38;;;;;;;6.27;2.57;;;;;;;9.09;83.99;102031.31;1718485;82;21077;-75
2022/11/11 08:44:24;;;;;;;7.93;3.00;;;;;;;9.14;83.83;102026.53;1702635;83;21018;-76
2022/11/11 08:47:09;;;;;;;6.47;2.77;;;;;;;9.20;83.86;102019.08;1706739;83;21302;-75
2022/11/11 08:49:55;;;;;;;6.90;2.90;;;;;;;9.26;83.82;102015.56;1708365;83;21127;-76
2022/11/11 08:52:47;;;;;;;7.13;2.73;;;;;;;9.34;83.84;102015.08;1690110;84;21078;-76
2022/11/11 08:55:34;;;;;;;7.50;2.93;;;;;;;9.42;83.84;102024.16;1693238;83;21043;-76
2022/11/11 08:58:19;;;;;;;6.97;2.90;;;;;;;9.51;83.74;102019.76;1701420;83;21532;-78
2022/11/11 09:01:10;;;;;;;8.00;2.83;;;;;;;9.64;83.81;102019.21;1693448;83;21039;-77
2022/11/11 09:03:55;;;;;;;8.20;3.00;;;;;;;9.78;83.66;102013.45;1693452;83;22578;-76
2022/11/11 09:06:42;;;;;;;6.47;2.80;;;;;;;9.96;83.59;102029.89;1705269;83;20951;-74
2022/11/11 09:09:27;;;;;;;5.55;2.08;;;;;;;10.13;83.49;102031.05;1714674;82;21033;-81
2022/11/11 09:12:13;;;;;;;8.03;2.30;;;;;;;10.37;83.25;102038.72;1712823;82;21033;-76
2022/11/11 09:15:00;;;;;;;3.62;1.75;;;;;;;10.59;82.92;102041.13;1719599;82;21030;-74
2022/11/11 09:17:48;;;;;;;6.55;1.70;;;;;;;10.80;82.57;102036.06;1717897;82;21154;-80
2022/11/11 09:20:33;;;;;;;3.77;1.25;;;;;;;11.03;82.12;102033.15;1716490;82;21058;-79
2022/11/11 09:23:19;;;;;;;5.70;1.30;;;;;;;11.25;81.70;102028.06;1720149;82;21272;-73
2022/11/11 09:26:05;;;;;;;3.60;1.30;;;;;;;11.44;81.06;102028.64;1695199;83;21544;-77
2022/11/11 09:28:50;;;;;;;3.55;1.40;;;;;;;11.58;80.52;102022.77;1715298;82;21387;-76
2022/11/11 09:31:36;;;;;;;4.37;1.40;;;;;;;11.69;80.07;102019.95;1719193;82;21133;-79
2022/11/11 09:34:22;;;;;;;7.70;1.60;;;;;;;11.77;79.38;102022.01;1721633;82;20943;-75
2022/11/11 09:37:08;;;;;;;4.80;1.52;;;;;;;11.83;78.61;102035.07;1720456;82;21095;-75
2022/11/11 09:39:55;;;;;;;3.70;1.45;;;;;;;11.86;78.28;102033.30;1721841;82;21046;-74
2022/11/11 09:42:51;;;;;;;5.05;1.72;;;;;;;11.92;78.03;102039.34;1720333;82;21024;-73
2022/11/11 09:45:45;;;;;;;6.72;1.67;;;;;;;12.01;77.79;102047.51;1687190;84;21352;-74
2022/11/11 09:49:12;;;;;;;4.22;1.55;;;;;;;12.10;77.38;102040.77;1714930;82;21563;-74
2022/11/11 09:52:22;;;;;;;5.17;1.65;;;;;;;12.22;77.23;102041.89;1716225;82;21022;-75
2022/11/11 09:55:37;;;;;;;5.03;1.70;;;;;;;12.33;76.70;102055.27;1680610;84;21065;-75
2022/11/11 09:58:42;;;;;;;5.30;1.92;;;;;;;12.42;76.46;102053.81;1705602;82;21026;-75
2022/11/11 10:01:30;;;;;;;2.72;1.35;;;;;;;12.49;76.24;102056.28;1704912;82;22141;-73
2022/11/11 10:04:39;;;;;;;5.83;2.17;;;;;;;12.63;75.94;102049.44;1699516;83;21074;-79
2022/11/11 10:07:37;;;;;;;4.78;1.45;;;;;;;12.73;75.64;102048.83;1709694;83;21049;-74
2022/11/11 10:10:49;;;;;;;3.67;1.87;;;;;;;12.86;75.25;102041.57;1707186;83;21360;-78
2022/11/11 10:13:37;;;;;;;6.75;2.35;;;;;;;12.98;74.94;102041.30;1705458;82;21049;-73
2022/11/11 10:16:40;;;;;;;4.28;1.67;;;;;;;13.13;74.59;102044.05;1704935;83;21190;-74
2022/11/11 10:20:16;;;;;;;5.33;1.60;;;;;;;13.32;74.33;102034.02;1704874;83;21026;-77
2022/11/11 10:23:15;;;;;;;6.17;1.57;;;;;;;13.46;73.87;102031.94;1714558;82;21051;-78
2022/11/11 10:26:08;;;;;;;3.67;1.45;;;;;;;13.67;73.40;102041.13;1695219;83;21513;-74
2022/11/11 10:28:54;;;;;;;3.92;1.65;;;;;;;13.88;73.03;102032.27;1646743;85;21387;-78
2022/11/11 10:31:41;;;;;;;4.28;1.30;;;;;;;14.05;72.68;102033.59;1676004;84;21165;-80
2022/11/11 10:34:34;;;;;;;4.20;1.42;;;;;;;14.21;72.33;102035.81;1685015;84;22171;-76
2022/11/11 10:37:30;;;;;;;5.45;1.55;;;;;;;14.40;72.06;102034.88;1679638;84;21049;-76
2022/11/11 10:40:27;;;;;;;4.72;1.40;;;;;;;14.49;71.35;102036.84;1656252;84;21066;-76
2022/11/11 10:43:22;;;;;;;5.15;1.65;;;;;;;14.53;70.97;102031.50;1675890;84;21042;-83
2022/11/11 10:46:31;;;;;;;3.45;1.50;;;;;;;14.51;70.39;102032.36;1646966;85;21580;-75
2022/11/11 10:49:20;;;;;;;4.92;1.72;;;;;;;14.46;70.17;102030.30;1659209;85;21054;-75
2022/11/11 10:52:23;;;;;;;5.65;1.27;;;;;;;14.43;69.98;102024.25;1643541;85;21483;-74
2022/11/11 10:55:26;;;;;;;5.40;1.60;;;;;;;14.39;69.73;102018.66;1643417;86;21030;-75
2022/11/11 10:58:28;;;;;;;6.22;1.50;;;;;;;14.37;69.71;102013.41;1643334;85;21042;-79
2022/11/11 11:01:19;;;;;;;2.50;1.30;;;;;;;14.33;69.34;102011.77;1643412;86;21544;-74
2022/11/11 11:04:16;;;;;;;5.83;1.37;;;;;;;14.28;69.31;102003.11;1668536;84;21497;-76
2022/11/11 11:07:05;;;;;;;5.37;1.60;;;;;;;14.29;69.02;101999.56;1653917;85;21469;-79
2022/11/11 11:10:01;;;;;;;2.65;1.27;;;;;;;14.33;69.03;102000.33;1671251;84;21436;-75
2022/11/11 11:13:07;;;;;;;4.42;1.37;;;;;;;14.36;68.86;102001.14;1671241;84;21038;-74
2022/11/11 11:15:58;;;;;;;5.35;1.62;;;;;;;14.32;68.43;102004.75;1671295;84;21343;-74
2022/11/11 11:18:43;;;;;;;;;;;;;;;14.26;68.52;102001.83;1656325;85;21016;-74
2022/11/11 11:21:34;;;;;;;2.67;1.32;;;;;;;14.26;68.06;102007.09;1671396;84;20141;-75
2022/11/11 11:24:24;;;;;;;3.10;1.37;;;;;;;14.28;68.72;102014.52;1657857;84;21073;-78
2022/11/11 11:27:10;;;;;;;4.83;1.35;;;;;;;14.29;68.32;102017.56;1654181;85;21051;-75
2022/11/11 11:30:01;;;;;;;2.98;1.17;;;;;;;14.26;68.10;102010.20;1671352;84;21147;-77
2022/11/11 11:33:03;;;;;;;4.12;1.52;;;;;;;14.26;68.07;102007.55;1653988;85;21479;-75
2022/11/11 11:35:48;;;;;;;3.80;1.40;;;;;;;14.29;68.23;102007.47;1620792;88;21035;-76
2022/11/11 11:38:49;;;;;;;3.67;1.50;;;;;;;14.26;67.91;102008.41;1602908;88;21076;-77
2022/11/11 11:41:49;;;;;;;4.67;1.47;;;;;;;14.24;67.89;102002.77;1620992;88;21075;-75
2022/11/11 11:44:37;;;;;;;7.12;2.05;;;;;;;14.23;67.95;102006.32;1621160;88;21188;-75
2022/11/11 11:47:37;;;;;;;6.50;2.05;;;;;;;14.23;67.93;102010.28;1620965;88;21028;-75
2022/11/11 11:50:49;;;;;;;4.08;1.47;;;;;;;14.27;67.87;102018.50;1621109;88;21111;-81
2022/11/11 11:53:55;;;;;;;6.92;1.62;;;;;;;14.25;67.81;102018.56;1620938;88;21079;-74
2022/11/11 11:56:50;;;;;;;3.42;1.17;;;;;;;14.26;67.63;102022.92;1620977;88;21079;-74
2022/11/11 11:59:49;;;;;;;3.98;1.17;;;;;;;14.31;67.65;102030.72;1621112;88;21337;-76
2022/11/11 12:02:40;;;;;;;4.40;1.60;;;;;;;14.34;67.26;102018.77;1607636;88;21064;-79
2022/11/11 12:05:41;;;;;;;2.72;1.15;;;;;;;14.34;67.24;102013.95;1595472;88;21113;-77
2022/11/11 12:08:56;;;;;;;7.17;2.00;;;;;;;14.36;67.01;102001.59;1620953;88;21105;-80
2022/11/11 12:12:37;;;;;;;3.72;1.50;;;;;;;14.31;66.55;101992.48;1627122;85;21044;-76
2022/11/11 12:16:00;;;;;;;4.05;1.47;;;;;;;14.22;66.32;101995.38;1669012;84;22053;-84
2022/11/11 12:19:20;;;;;;;3.85;1.42;;;;;;;14.17;66.72;102003.39;1675481;84;21079;-77
2022/11/11 12:22:30;;;;;;;4.90;1.50;;;;;;;14.14;66.43;101995.57;1678230;84;21497;-77
2022/11/11 12:25:21;;;;;;;3.52;1.40;;;;;;;14.09;66.17;101997.92;1694602;84;21067;-76
2022/11/11 12:28:36;;;;;;;2.30;1.02;;;;;;;14.03;66.03;101990.58;1682199;84;20999;-72
2022/11/11 12:31:54;;;;;;;4.08;1.27;;;;;;;14.01;65.97;101998.97;1683155;84;21993;-73
2022/11/11 12:35:06;;;;;;;3.10;1.20;;;;;;;13.99;65.79;101991.55;1671923;84;21542;-79
2022/11/11 12:38:12;;;;;;;4.12;1.35;;;;;;;13.98;65.74;101992.92;1675227;84;21039;-76
2022/11/11 12:41:06;;;;;;;3.60;1.40;;;;;;;13.97;65.75;101987.25;1671238;84;20964;-72
2022/11/11 12:44:06;;;;;;;4.03;1.40;;;;;;;13.95;65.82;101982.00;1671787;84;21090;-73
2022/11/11 12:47:21;;;;;;;3.67;1.30;;;;;;;13.89;65.44;101972.94;1674002;84;21152;-81
2022/11/11 12:50:27;;;;;;;2.90;1.60;;;;;;;13.86;65.46;101972.16;1688937;84;21031;-75
2022/11/11 12:53:41;;;;;;;4.10;1.20;;;;;;;13.82;65.30;101971.34;1670022;84;21063;-75
2022/11/11 12:56:32;;;;;;;4.53;1.50;;;;;;;13.81;65.45;101982.80;1670070;84;21023;-74
2022/11/11 12:59:44;;;;;;;4.67;1.30;;;;;;;13.75;65.22;101985.14;1670156;85;21023;-74
2022/11/11 13:03:08;;;;;;;2.25;1.22;;;;;;;13.73;65.17;101993.53;1670142;84;21988;-74
2022/11/11 13:06:31;;;;;;;3.80;1.40;;;;;;;13.74;65.21;101986.48;1670019;84;21606;-74
2022/11/11 13:09:50;;;;;;;5.85;1.40;;;;;;;13.77;65.47;101989.94;1670074;84;21055;-73
2022/11/11 13:12:53;;;;;;;6.90;1.40;;;;;;;13.75;65.17;101992.19;1659719;84;21020;-79
2022/11/11 13:15:38;;;;;;;3.50;1.60;;;;;;;13.72;65.16;101980.41;1670095;84;21007;-79
2022/11/11 13:18:50;;;;;;;3.85;1.30;;;;;;;13.66;65.00;101980.08;1670055;84;21159;-76
2022/11/11 13:22:04;;;;;;;3.90;1.70;;;;;;;13.65;65.11;101980.14;1669992;84;21054;-74
2022/11/11 13:24:51;;;;;;;5.70;1.72;;;;;;;13.68;65.14;101985.33;1671280;84;21496;-80
2022/11/11 13:27:41;;;;;;;4.25;1.50;;;;;;;13.65;65.18;101984.95;1671050;84;21039;-73
2022/11/11 13:30:51;;;;;;;5.97;1.70;;;;;;;13.67;65.19;101992.83;1681043;84;21022;-75
2022/11/11 13:33:50;;;;;;;2.60;1.22;;;;;;;13.66;65.23;101993.25;1672147;84;21186;-74
2022/11/11 13:36:46;;;;;;;3.42;1.30;;;;;;;13.65;65.25;101997.27;1704851;82;21030;-74
2022/11/11 13:39:49;;;;;;;3.33;1.15;;;;;;;13.67;65.31;101991.05;1704822;83;21045;-74
2022/11/11 13:42:45;;;;;;;2.90;1.32;;;;;;;13.67;65.30;101992.37;1716378;82;21083;-84
2022/11/11 13:45:39;;;;;;;5.15;1.75;;;;;;;13.63;65.22;101999.92;1704839;82;21678;-74
2022/11/11 13:48:32;;;;;;;3.92;1.45;;;;;;;13.62;65.19;101996.88;1704846;82;21290;-73
2022/11/11 13:51:42;;;;;;;2.62;1.40;;;;;;;13.56;65.19;102005.80;1698240;83;21011;-84
2022/11/11 13:54:35;;;;;;;4.08;1.47;;;;;;;13.51;65.18;102010.77;1702151;82;21082;-84
2022/11/11 13:57:25;;;;;;;4.55;1.62;;;;;;;13.51;65.25;102009.45;1704588;82;21046;-73
2022/11/11 14:00:22;;;;;;;4.22;1.62;;;;;;;13.47;65.26;102009.98;1704753;82;21069;-85
2022/11/11 14:03:25;;;;;;;3.92;1.50;;;;;;;13.42;65.27;102005.27;1704596;82;22165;-73
2022/11/11 14:06:19;;;;;;;4.33;1.90;;;;;;;13.36;65.26;102001.47;1703715;82;21094;-84
2022/11/11 14:09:07;;;;;;;3.83;1.47;;;;;;;13.28;65.11;102002.95;1704557;82;21018;-84
2022/11/11 14:12:14;;;;;;;3.52;1.67;;;;;;;13.20;65.12;102004.00;1707378;82;21003;-84
2022/11/11 14:14:59;;;;;;;2.58;1.40;;;;;;;13.18;65.33;102011.91;1706936;82;21884;-82
2022/11/11 14:17:45;;;;;;;4.42;1.70;;;;;;;13.15;65.36;102008.89;1718321;82;21983;-84
2022/11/11 14:20:36;;;;;;;3.47;1.30;;;;;;;13.09;65.30;102010.81;1704664;83;21030;-80
2022/11/11 14:23:42;;;;;;;5.58;2.20;;;;;;;13.03;65.38;102005.69;1717330;82;21042;-72
2022/11/11 14:26:30;;;;;;;4.08;1.45;;;;;;;12.99;65.48;102008.81;1719601;82;20982;-79
2022/11/11 14:29:19;;;;;;;4.10;1.80;;;;;;;12.94;65.48;102011.98;1725567;82;21027;-79
2022/11/11 14:32:48;;;;;;;4.08;1.75;;;;;;;12.88;65.57;102010.80;1713114;82;22012;-73
2022/11/11 14:36:00;;;;;;;4.55;1.62;;;;;;;12.82;65.58;102014.88;1670272;85;21038;-72